sensor_id;sensor_type;location;lat;lon;timestamp;pressure;altitude;pressure_sealevel;temperature;humidity
24336;BME280;33098;52.400;16.880;2023-06-14T00:00:32;100923.75;;;17.22;62.21
24336;BME280;33098;52.400;16.880;2023-06-14T00:03:21;100927.29;;;17.22;62.66
24336;BME280;33098;52.400;16.880;2023-06-14T00:05:48;100927.06;;;17.21;62.86
24336;BME280;33098;52.400;16.880;2023-06-14T00:08:15;100929.52;;;17.22;63.11
24336;BME280;33098;52.400;16.880;2023-06-14T00:10:42;100934.90;;;17.23;63.06
24336;BME280;33098;52.400;16.880;2023-06-14T00:13:09;100929.55;;;17.25;63.17
24336;BME280;33098;52.400;16.880;2023-06-14T00:15:36;100923.42;;;17.25;63.30
24336;BME280;33098;52.400;16.880;2023-06-14T00:18:03;100922.41;;;17.26;63.31
24336;BME280;33098;52.400;16.880;2023-06-14T00:20:31;100920.81;;;17.28;63.41
24336;BME280;33098;52.400;16.880;2023-06-14T00:22:59;100917.13;;;17.25;63.42
24336;BME280;33098;52.400;16.880;2023-06-14T00:25:26;100920.42;;;17.25;63.51
24336;BME280;33098;52.400;16.880;2023-06-14T00:27:54;100921.70;;;17.21;63.55
24336;BME280;33098;52.400;16.880;2023-06-14T00:30:21;100925.20;;;17.16;63.77
24336;BME280;33098;52.400;16.880;2023-06-14T00:32:48;100930.73;;;17.16;63.96
24336;BME280;33098;52.400;16.880;2023-06-14T00:35:15;100931.06;;;17.13;64.06
24336;BME280;33098;52.400;16.880;2023-06-14T00:37:42;100927.61;;;17.11;64.40
24336;BME280;33098;52.400;16.880;2023-06-14T00:40:08;100925.85;;;17.13;64.63
24336;BME280;33098;52.400;16.880;2023-06-14T00:42:35;100925.02;;;17.14;64.96
24336;BME280;33098;52.400;16.880;2023-06-14T00:45:02;100926.95;;;17.14;65.05
24336;BME280;33098;52.400;16.880;2023-06-14T00:47:28;100924.27;;;17.16;65.18
24336;BME280;33098;52.400;16.880;2023-06-14T00:49:56;100919.70;;;17.14;65.34
24336;BME280;33098;52.400;16.880;2023-06-14T00:52:23;100920.27;;;17.04;65.62
24336;BME280;33098;52.400;16.880;2023-06-14T00:54:52;100920.27;;;17.04;65.79
24336;BME280;33098;52.400;16.880;2023-06-14T00:57:19;100923.30;;;17.06;66.03
24336;BME280;33098;52.400;16.880;2023-06-14T00:59:48;100920.38;;;17.07;66.23
24336;BME280;33098;52.400;16.880;2023-06-14T01:02:15;100924.08;;;17.07;66.31
24336;BME280;33098;52.400;16.880;2023-06-14T01:04:44;100918.64;;;17.06;66.68
24336;BME280;33098;52.400;16.880;2023-06-14T01:10:31;100930.64;;;17.03;67.25
24336;BME280;33098;52.400;16.880;2023-06-14T01:13:11;100930.73;;;17.07;67.77
24336;BME280;33098;52.400;16.880;2023-06-14T01:15:40;100928.33;;;17.08;68.20
24336;BME280;33098;52.400;16.880;2023-06-14T01:18:10;100930.59;;;17.07;68.19
24336;BME280;33098;52.400;16.880;2023-06-14T01:20:45;100930.23;;;17.07;68.68
24336;BME280;33098;52.400;16.880;2023-06-14T01:23:17;100921.93;;;17.07;68.88
24336;BME280;33098;52.400;16.880;2023-06-14T01:25:44;100923.66;;;17.06;68.99
24336;BME280;33098;52.400;16.880;2023-06-14T01:28:12;100919.48;;;17.03;69.03
24336;BME280;33098;52.400;16.880;2023-06-14T01:30:42;100918.64;;;16.99;69.45
24336;BME280;33098;52.400;16.880;2023-06-14T01:33:14;100915.80;;;16.95;69.68
24336;BME280;33098;52.400;16.880;2023-06-14T01:35:43;100909.11;;;16.92;69.85
24336;BME280;33098;52.400;16.880;2023-06-14T01:38:10;100904.98;;;16.86;69.83
24336;BME280;33098;52.400;16.880;2023-06-14T01:40:39;100901.23;;;16.80;69.96
24336;BME280;33098;52.400;16.880;2023-06-14T01:43:06;100896.20;;;16.79;70.27
24336;BME280;33098;52.400;16.880;2023-06-14T01:45:34;100897.75;;;16.79;70.74
24336;BME280;33098;52.400;16.880;2023-06-14T01:48:01;100900.88;;;16.82;70.86
24336;BME280;33098;52.400;16.880;2023-06-14T01:50:30;100898.77;;;16.82;71.13
24336;BME280;33098;52.400;16.880;2023-06-14T01:52:58;100900.73;;;16.78;71.24
24336;BME280;33098;52.400;16.880;2023-06-14T01:55:24;100895.27;;;16.77;71.28
24336;BME280;33098;52.400;16.880;2023-06-14T01:57:51;100896.59;;;16.80;71.47
24336;BME280;33098;52.400;16.880;2023-06-14T02:00:19;100892.39;;;16.79;71.45
24336;BME280;33098;52.400;16.880;2023-06-14T02:02:45;100885.84;;;16.78;71.62
24336;BME280;33098;52.400;16.880;2023-06-14T02:05:12;100878.84;;;16.80;71.57
24336;BME280;33098;52.400;16.880;2023-06-14T02:07:41;100882.39;;;16.84;71.86
24336;BME280;33098;52.400;16.880;2023-06-14T02:10:08;100879.25;;;16.83;71.74
24336;BME280;33098;52.400;16.880;2023-06-14T02:12:34;100875.86;;;16.81;71.69
24336;BME280;33098;52.400;16.880;2023-06-14T02:15:01;100881.19;;;16.80;71.85
24336;BME280;33098;52.400;16.880;2023-06-14T02:17:29;100880.72;;;16.81;71.88
24336;BME280;33098;52.400;16.880;2023-06-14T02:19:55;100881.00;;;16.84;72.00
24336;BME280;33098;52.400;16.880;2023-06-14T02:22:23;100892.73;;;16.83;72.04
24336;BME280;33098;52.400;16.880;2023-06-14T02:24:50;100893.44;;;16.81;72.10
24336;BME280;33098;52.400;16.880;2023-06-14T02:27:16;100896.21;;;16.80;72.16
24336;BME280;33098;52.400;16.880;2023-06-14T02:29:43;100892.88;;;16.81;72.17
24336;BME280;33098;52.400;16.880;2023-06-14T02:32:09;100893.41;;;16.81;72.26
24336;BME280;33098;52.400;16.880;2023-06-14T02:34:36;100890.65;;;16.79;72.26
24336;BME280;33098;52.400;16.880;2023-06-14T02:37:03;100892.74;;;16.77;72.12
24336;BME280;33098;52.400;16.880;2023-06-14T02:39:30;100892.48;;;16.76;72.15
24336;BME280;33098;52.400;16.880;2023-06-14T02:41:57;100898.17;;;16.78;72.08
24336;BME280;33098;52.400;16.880;2023-06-14T02:44:26;100888.94;;;16.76;71.96
24336;BME280;33098;52.400;16.880;2023-06-14T02:46:54;100889.43;;;16.69;72.03
24336;BME280;33098;52.400;16.880;2023-06-14T02:49:22;100892.63;;;16.69;72.12
24336;BME280;33098;52.400;16.880;2023-06-14T02:51:49;100900.73;;;16.67;72.11
24336;BME280;33098;52.400;16.880;2023-06-14T02:54:15;100901.95;;;16.64;72.19
24336;BME280;33098;52.400;16.880;2023-06-14T02:56:42;100902.84;;;16.64;72.23
24336;BME280;33098;52.400;16.880;2023-06-14T02:59:10;100906.77;;;16.66;72.38
24336;BME280;33098;52.400;16.880;2023-06-14T03:01:36;100905.70;;;16.67;72.44
24336;BME280;33098;52.400;16.880;2023-06-14T03:04:08;100903.14;;;16.68;72.46
24336;BME280;33098;52.400;16.880;2023-06-14T03:06:36;100902.23;;;16.68;72.66
24336;BME280;33098;52.400;16.880;2023-06-14T03:09:03;100907.32;;;16.67;72.73
24336;BME280;33098;52.400;16.880;2023-06-14T03:11:36;100905.85;;;16.64;72.92
24336;BME280;33098;52.400;16.880;2023-06-14T03:14:02;100899.55;;;16.66;72.85
24336;BME280;33098;52.400;16.880;2023-06-14T03:16:31;100897.77;;;16.68;72.74
24336;BME280;33098;52.400;16.880;2023-06-14T03:18:58;100897.84;;;16.69;72.77
24336;BME280;33098;52.400;16.880;2023-06-14T03:21:26;100900.84;;;16.68;72.88
24336;BME280;33098;52.400;16.880;2023-06-14T03:23:53;100897.67;;;16.67;72.85
24336;BME280;33098;52.400;16.880;2023-06-14T03:26:20;100902.09;;;16.66;72.97
24336;BME280;33098;52.400;16.880;2023-06-14T03:28:48;100894.85;;;16.67;73.09
24336;BME280;33098;52.400;16.880;2023-06-14T03:31:16;100902.83;;;16.67;72.87
24336;BME280;33098;52.400;16.880;2023-06-14T03:33:43;100902.09;;;16.68;72.86
24336;BME280;33098;52.400;16.880;2023-06-14T03:36:10;100902.26;;;16.68;72.88
24336;BME280;33098;52.400;16.880;2023-06-14T03:38:36;100902.67;;;16.69;72.94
24336;BME280;33098;52.400;16.880;2023-06-14T03:41:03;100909.15;;;16.74;72.94
24336;BME280;33098;52.400;16.880;2023-06-14T03:43:32;100912.38;;;16.76;72.75
24336;BME280;33098;52.400;16.880;2023-06-14T03:46:00;100916.46;;;16.76;72.71
24336;BME280;33098;52.400;16.880;2023-06-14T03:48:27;100914.66;;;16.77;72.69
24336;BME280;33098;52.400;16.880;2023-06-14T03:50:53;100916.14;;;16.76;72.53
24336;BME280;33098;52.400;16.880;2023-06-14T03:53:21;100914.19;;;16.71;72.51
24336;BME280;33098;52.400;16.880;2023-06-14T03:55:50;100917.34;;;16.70;72.57
24336;BME280;33098;52.400;16.880;2023-06-14T03:58:19;100919.00;;;16.69;72.54
24336;BME280;33098;52.400;16.880;2023-06-14T04:00:46;100921.44;;;16.68;72.60
24336;BME280;33098;52.400;16.880;2023-06-14T04:03:13;100919.44;;;16.66;72.61
24336;BME280;33098;52.400;16.880;2023-06-14T04:05:42;100920.44;;;16.65;72.60
24336;BME280;33098;52.400;16.880;2023-06-14T04:08:09;100923.38;;;16.66;72.57
24336;BME280;33098;52.400;16.880;2023-06-14T04:10:37;100927.58;;;16.66;72.57
24336;BME280;33098;52.400;16.880;2023-06-14T04:13:03;100926.19;;;16.65;72.61
24336;BME280;33098;52.400;16.880;2023-06-14T04:15:31;100925.75;;;16.66;72.59
24336;BME280;33098;52.400;16.880;2023-06-14T04:17:59;100929.45;;;16.66;72.66
24336;BME280;33098;52.400;16.880;2023-06-14T04:20:26;100927.91;;;16.66;72.74
24336;BME280;33098;52.400;16.880;2023-06-14T04:22:53;100924.08;;;16.69;72.82
24336;BME280;33098;52.400;16.880;2023-06-14T04:25:20;100928.63;;;16.68;72.75
24336;BME280;33098;52.400;16.880;2023-06-14T04:27:47;100931.61;;;16.66;72.84
24336;BME280;33098;52.400;16.880;2023-06-14T04:30:14;100931.52;;;16.66;72.77
24336;BME280;33098;52.400;16.880;2023-06-14T04:32:48;100930.66;;;16.67;72.83
24336;BME280;33098;52.400;16.880;2023-06-14T04:35:16;100935.81;;;16.69;72.80
24336;BME280;33098;52.400;16.880;2023-06-14T04:37:44;100933.21;;;16.68;72.73
24336;BME280;33098;52.400;16.880;2023-06-14T04:40:12;100931.58;;;16.67;72.88
24336;BME280;33098;52.400;16.880;2023-06-14T04:42:39;100933.23;;;16.68;73.02
24336;BME280;33098;52.400;16.880;2023-06-14T04:45:08;100930.50;;;16.73;73.08
24336;BME280;33098;52.400;16.880;2023-06-14T04:47:36;100937.04;;;16.77;73.10
24336;BME280;33098;52.400;16.880;2023-06-14T04:50:05;100933.77;;;16.77;73.11
24336;BME280;33098;52.400;16.880;2023-06-14T04:52:32;100933.96;;;16.81;73.07
24336;BME280;33098;52.400;16.880;2023-06-14T04:54:59;100933.39;;;16.87;73.19
24336;BME280;33098;52.400;16.880;2023-06-14T04:57:27;100936.67;;;16.91;73.10
24336;BME280;33098;52.400;16.880;2023-06-14T04:59:56;100943.91;;;16.95;73.02
24336;BME280;33098;52.400;16.880;2023-06-14T05:02:25;100949.38;;;17.00;73.02
24336;BME280;33098;52.400;16.880;2023-06-14T05:04:53;100951.50;;;17.06;73.15
24336;BME280;33098;52.400;16.880;2023-06-14T05:07:19;100952.56;;;17.06;73.20
24336;BME280;33098;52.400;16.880;2023-06-14T05:09:48;100953.50;;;17.07;73.16
24336;BME280;33098;52.400;16.880;2023-06-14T05:12:15;100949.25;;;17.07;73.28
24336;BME280;33098;52.400;16.880;2023-06-14T05:14:45;100947.33;;;17.03;73.24
24336;BME280;33098;52.400;16.880;2023-06-14T05:17:12;100946.42;;;17.01;73.38
24336;BME280;33098;52.400;16.880;2023-06-14T05:19:39;100947.02;;;17.02;73.67
24336;BME280;33098;52.400;16.880;2023-06-14T05:22:06;100944.76;;;17.05;73.77
24336;BME280;33098;52.400;16.880;2023-06-14T05:24:32;100949.81;;;17.06;73.64
24336;BME280;33098;52.400;16.880;2023-06-14T05:26:59;100952.61;;;17.07;73.64
24336;BME280;33098;52.400;16.880;2023-06-14T05:29:26;100957.14;;;17.12;73.88
24336;BME280;33098;52.400;16.880;2023-06-14T05:31:53;100961.11;;;17.15;73.92
24336;BME280;33098;52.400;16.880;2023-06-14T05:34:20;100961.83;;;17.17;73.78
24336;BME280;33098;52.400;16.880;2023-06-14T05:36:46;100966.05;;;17.14;73.71
24336;BME280;33098;52.400;16.880;2023-06-14T05:39:13;100964.09;;;17.14;73.71
24336;BME280;33098;52.400;16.880;2023-06-14T05:41:40;100965.29;;;17.17;73.74
24336;BME280;33098;52.400;16.880;2023-06-14T05:44:06;100966.46;;;17.22;73.71
24336;BME280;33098;52.400;16.880;2023-06-14T05:46:34;100969.14;;;17.24;73.71
24336;BME280;33098;52.400;16.880;2023-06-14T05:49:00;100972.30;;;17.26;73.61
24336;BME280;33098;52.400;16.880;2023-06-14T05:51:27;100972.43;;;17.27;73.53
24336;BME280;33098;52.400;16.880;2023-06-14T05:53:54;100975.88;;;17.28;73.56
24336;BME280;33098;52.400;16.880;2023-06-14T05:56:20;100973.66;;;17.29;73.59
24336;BME280;33098;52.400;16.880;2023-06-14T05:58:47;100970.78;;;17.30;73.47
24336;BME280;33098;52.400;16.880;2023-06-14T06:01:14;100970.93;;;17.34;73.34
24336;BME280;33098;52.400;16.880;2023-06-14T06:03:41;100973.46;;;17.38;73.28
24336;BME280;33098;52.400;16.880;2023-06-14T06:06:07;100981.58;;;17.43;73.14
24336;BME280;33098;52.400;16.880;2023-06-14T06:08:34;100984.29;;;17.48;73.34
24336;BME280;33098;52.400;16.880;2023-06-14T06:11:01;100982.27;;;17.53;73.41
24336;BME280;33098;52.400;16.880;2023-06-14T06:13:28;100989.39;;;17.57;73.33
24336;BME280;33098;52.400;16.880;2023-06-14T06:15:55;100989.33;;;17.59;73.23
24336;BME280;33098;52.400;16.880;2023-06-14T06:18:22;100986.27;;;17.59;73.35
24336;BME280;33098;52.400;16.880;2023-06-14T06:20:49;100986.55;;;17.61;73.36
24336;BME280;33098;52.400;16.880;2023-06-14T06:23:16;100986.14;;;17.66;73.54
24336;BME280;33098;52.400;16.880;2023-06-14T06:25:42;100986.73;;;17.67;73.59
24336;BME280;33098;52.400;16.880;2023-06-14T06:28:09;100988.56;;;17.69;73.60
24336;BME280;33098;52.400;16.880;2023-06-14T06:30:36;100991.39;;;17.69;73.56
24336;BME280;33098;52.400;16.880;2023-06-14T06:33:02;100995.39;;;17.68;73.46
24336;BME280;33098;52.400;16.880;2023-06-14T06:35:29;100996.14;;;17.68;73.39
24336;BME280;33098;52.400;16.880;2023-06-14T06:37:57;100996.23;;;17.67;73.30
24336;BME280;33098;52.400;16.880;2023-06-14T06:40:23;101002.59;;;17.65;73.30
24336;BME280;33098;52.400;16.880;2023-06-14T06:42:50;101006.45;;;17.64;73.46
24336;BME280;33098;52.400;16.880;2023-06-14T06:45:17;101006.63;;;17.65;73.55
24336;BME280;33098;52.400;16.880;2023-06-14T06:47:44;101002.45;;;17.68;73.89
24336;BME280;33098;52.400;16.880;2023-06-14T06:50:11;101002.88;;;17.71;73.99
24336;BME280;33098;52.400;16.880;2023-06-14T06:52:37;101007.07;;;17.72;74.13
24336;BME280;33098;52.400;16.880;2023-06-14T06:55:04;101006.02;;;17.71;73.98
24336;BME280;33098;52.400;16.880;2023-06-14T06:57:31;101005.31;;;17.71;74.01
24336;BME280;33098;52.400;16.880;2023-06-14T06:59:58;101007.58;;;17.77;73.96
24336;BME280;33098;52.400;16.880;2023-06-14T07:02:24;101006.98;;;17.78;73.90
24336;BME280;33098;52.400;16.880;2023-06-14T07:04:51;101008.02;;;17.80;73.95
24336;BME280;33098;52.400;16.880;2023-06-14T07:07:17;101008.86;;;17.85;73.98
24336;BME280;33098;52.400;16.880;2023-06-14T07:09:44;101013.27;;;17.89;73.76
24336;BME280;33098;52.400;16.880;2023-06-14T07:12:12;101019.01;;;17.93;73.67
24336;BME280;33098;52.400;16.880;2023-06-14T07:14:38;101028.48;;;17.93;73.37
24336;BME280;33098;52.400;16.880;2023-06-14T07:17:05;101028.98;;;17.92;73.09
24336;BME280;33098;52.400;16.880;2023-06-14T07:19:32;101029.73;;;17.84;73.04
24336;BME280;33098;52.400;16.880;2023-06-14T07:21:59;101024.38;;;17.78;73.33
24336;BME280;33098;52.400;16.880;2023-06-14T07:24:26;101023.09;;;17.76;73.61
24336;BME280;33098;52.400;16.880;2023-06-14T07:26:54;101021.64;;;17.79;73.97
24336;BME280;33098;52.400;16.880;2023-06-14T07:29:21;101024.58;;;17.82;74.50
24336;BME280;33098;52.400;16.880;2023-06-14T07:31:48;101025.59;;;17.84;74.47
24336;BME280;33098;52.400;16.880;2023-06-14T07:34:14;101022.66;;;17.81;74.68
24336;BME280;33098;52.400;16.880;2023-06-14T07:36:41;101018.35;;;17.77;74.92
24336;BME280;33098;52.400;16.880;2023-06-14T07:39:10;101015.20;;;17.73;74.64
24336;BME280;33098;52.400;16.880;2023-06-14T07:41:37;101020.85;;;17.67;75.14
24336;BME280;33098;52.400;16.880;2023-06-14T07:44:04;101018.04;;;17.68;75.80
24336;BME280;33098;52.400;16.880;2023-06-14T07:46:30;101025.61;;;17.71;75.94
24336;BME280;33098;52.400;16.880;2023-06-14T07:48:57;101028.71;;;17.73;76.04
24336;BME280;33098;52.400;16.880;2023-06-14T07:51:23;101032.50;;;17.82;76.28
24336;BME280;33098;52.400;16.880;2023-06-14T07:53:50;101032.10;;;17.95;76.12
24336;BME280;33098;52.400;16.880;2023-06-14T07:56:16;101031.89;;;18.01;76.03
24336;BME280;33098;52.400;16.880;2023-06-14T07:58:43;101033.68;;;18.06;75.83
24336;BME280;33098;52.400;16.880;2023-06-14T08:01:09;101028.92;;;18.08;75.78
24336;BME280;33098;52.400;16.880;2023-06-14T08:03:37;101027.92;;;18.08;75.70
24336;BME280;33098;52.400;16.880;2023-06-14T08:06:06;101018.52;;;18.05;75.58
24336;BME280;33098;52.400;16.880;2023-06-14T08:08:33;101022.58;;;18.05;75.66
24336;BME280;33098;52.400;16.880;2023-06-14T08:10:59;101028.49;;;18.09;75.52
24336;BME280;33098;52.400;16.880;2023-06-14T08:13:26;101029.36;;;18.04;75.57
24336;BME280;33098;52.400;16.880;2023-06-14T08:15:52;101024.85;;;18.08;75.90
24336;BME280;33098;52.400;16.880;2023-06-14T08:18:19;101015.59;;;18.09;75.77
24336;BME280;33098;52.400;16.880;2023-06-14T08:20:46;101008.46;;;18.10;75.67
24336;BME280;33098;52.400;16.880;2023-06-14T08:23:13;101017.16;;;18.11;75.84
24336;BME280;33098;52.400;16.880;2023-06-14T08:25:39;101021.69;;;18.12;75.99
24336;BME280;33098;52.400;16.880;2023-06-14T08:28:06;101022.17;;;18.20;76.35
24336;BME280;33098;52.400;16.880;2023-06-14T08:30:33;101023.11;;;18.32;76.72
24336;BME280;33098;52.400;16.880;2023-06-14T08:32:59;101024.84;;;18.45;76.57
24336;BME280;33098;52.400;16.880;2023-06-14T08:35:26;101019.62;;;18.59;76.42
24336;BME280;33098;52.400;16.880;2023-06-14T08:37:52;101027.40;;;18.68;75.66
24336;BME280;33098;52.400;16.880;2023-06-14T08:40:22;101027.03;;;18.74;74.95
24336;BME280;33098;52.400;16.880;2023-06-14T08:42:53;101028.59;;;18.78;74.21
24336;BME280;33098;52.400;16.880;2023-06-14T08:45:21;101026.31;;;18.84;73.84
24336;BME280;33098;52.400;16.880;2023-06-14T08:47:48;101032.39;;;18.85;73.81
24336;BME280;33098;52.400;16.880;2023-06-14T08:50:21;101034.36;;;18.91;73.65
24336;BME280;33098;52.400;16.880;2023-06-14T08:52:52;101037.81;;;18.97;73.60
24336;BME280;33098;52.400;16.880;2023-06-14T08:55:21;101037.60;;;19.12;73.47
24336;BME280;33098;52.400;16.880;2023-06-14T08:57:53;101032.38;;;19.24;73.34
24336;BME280;33098;52.400;16.880;2023-06-14T09:00:20;101026.27;;;19.39;73.19
24336;BME280;33098;52.400;16.880;2023-06-14T09:02:48;101028.20;;;19.49;72.52
24336;BME280;33098;52.400;16.880;2023-06-14T09:05:15;101029.67;;;19.59;72.08
24336;BME280;33098;52.400;16.880;2023-06-14T09:07:44;101028.14;;;19.70;71.57
24336;BME280;33098;52.400;16.880;2023-06-14T09:10:12;101033.68;;;19.84;71.05
24336;BME280;33098;52.400;16.880;2023-06-14T09:12:39;101029.14;;;19.98;70.77
24336;BME280;33098;52.400;16.880;2023-06-14T09:15:07;101029.48;;;20.13;70.19
24336;BME280;33098;52.400;16.880;2023-06-14T09:17:35;101029.01;;;20.20;69.24
24336;BME280;33098;52.400;16.880;2023-06-14T09:20:02;101028.73;;;20.26;68.81
24336;BME280;33098;52.400;16.880;2023-06-14T09:22:32;101026.92;;;20.34;68.23
24336;BME280;33098;52.400;16.880;2023-06-14T09:24:59;101029.27;;;20.42;67.66
24336;BME280;33098;52.400;16.880;2023-06-14T09:27:27;101029.48;;;20.47;67.32
24336;BME280;33098;52.400;16.880;2023-06-14T09:29:54;101030.55;;;20.50;66.82
24336;BME280;33098;52.400;16.880;2023-06-14T09:32:21;101023.89;;;20.50;66.28
24336;BME280;33098;52.400;16.880;2023-06-14T09:34:48;101025.11;;;20.52;65.94
24336;BME280;33098;52.400;16.880;2023-06-14T09:37:27;101023.31;;;20.49;64.90
24336;BME280;33098;52.400;16.880;2023-06-14T09:39:54;101020.58;;;20.51;65.17
24336;BME280;33098;52.400;16.880;2023-06-14T09:42:21;101016.52;;;20.66;65.11
24336;BME280;33098;52.400;16.880;2023-06-14T09:44:49;101012.03;;;20.81;64.70
24336;BME280;33098;52.400;16.880;2023-06-14T09:47:16;101013.33;;;20.87;64.16
24336;BME280;33098;52.400;16.880;2023-06-14T09:49:42;101011.67;;;20.90;63.61
24336;BME280;33098;52.400;16.880;2023-06-14T09:52:18;101012.91;;;20.89;63.26
24336;BME280;33098;52.400;16.880;2023-06-14T09:54:47;101011.09;;;20.86;62.75
24336;BME280;33098;52.400;16.880;2023-06-14T09:57:16;101008.11;;;20.85;62.52
24336;BME280;33098;52.400;16.880;2023-06-14T09:59:45;101002.54;;;20.90;62.69
24336;BME280;33098;52.400;16.880;2023-06-14T10:04:58;100990.36;;;20.87;61.83
24336;BME280;33098;52.400;16.880;2023-06-14T10:07:30;100995.43;;;20.89;61.65
24336;BME280;33098;52.400;16.880;2023-06-14T10:09:59;100990.98;;;20.93;61.71
24336;BME280;33098;52.400;16.880;2023-06-14T10:12:26;100982.68;;;21.04;61.41
24336;BME280;33098;52.400;16.880;2023-06-14T10:14:53;100983.96;;;21.20;61.22
24336;BME280;33098;52.400;16.880;2023-06-14T10:19:55;100978.90;;;21.49;60.71
24336;BME280;33098;52.400;16.880;2023-06-14T10:22:39;100978.58;;;21.56;60.13
24336;BME280;33098;52.400;16.880;2023-06-14T10:25:12;100977.41;;;21.67;59.78
24336;BME280;33098;52.400;16.880;2023-06-14T10:27:44;100972.89;;;21.87;59.49
24336;BME280;33098;52.400;16.880;2023-06-14T10:30:14;100973.66;;;22.13;59.36
24336;BME280;33098;52.400;16.880;2023-06-14T10:33:03;100969.02;;;22.29;58.72
24336;BME280;33098;52.400;16.880;2023-06-14T10:35:29;100968.59;;;22.37;58.19
24336;BME280;33098;52.400;16.880;2023-06-14T10:38:06;100970.09;;;22.50;57.77
24336;BME280;33098;52.400;16.880;2023-06-14T10:40:33;100971.38;;;22.65;57.42
24336;BME280;33098;52.400;16.880;2023-06-14T10:43:00;100971.16;;;22.77;57.12
24336;BME280;33098;52.400;16.880;2023-06-14T10:45:26;100966.23;;;22.86;56.76
24336;BME280;33098;52.400;16.880;2023-06-14T10:47:57;100969.48;;;22.94;56.35
24336;BME280;33098;52.400;16.880;2023-06-14T10:50:29;100961.86;;;22.97;55.96
24336;BME280;33098;52.400;16.880;2023-06-14T10:52:56;100962.30;;;22.96;55.53
24336;BME280;33098;52.400;16.880;2023-06-14T10:55:22;100956.20;;;23.06;55.30
24336;BME280;33098;52.400;16.880;2023-06-14T10:57:50;100955.42;;;23.20;55.06
24336;BME280;33098;52.400;16.880;2023-06-14T11:00:28;100963.59;;;23.23;54.64
24336;BME280;33098;52.400;16.880;2023-06-14T11:03:11;100964.52;;;23.14;54.36
24336;BME280;33098;52.400;16.880;2023-06-14T11:05:54;100963.41;;;23.07;54.27
24336;BME280;33098;52.400;16.880;2023-06-14T11:08:39;100959.20;;;23.02;54.28
24336;BME280;33098;52.400;16.880;2023-06-14T11:11:10;100954.98;;;23.13;54.29
24336;BME280;33098;52.400;16.880;2023-06-14T11:13:44;100953.73;;;23.26;54.19
24336;BME280;33098;52.400;16.880;2023-06-14T11:16:12;100951.60;;;23.39;53.90
24336;BME280;33098;52.400;16.880;2023-06-14T11:18:39;100949.77;;;23.57;53.38
24336;BME280;33098;52.400;16.880;2023-06-14T11:21:06;100945.66;;;23.69;53.04
24336;BME280;33098;52.400;16.880;2023-06-14T11:23:33;100945.06;;;23.82;52.79
24336;BME280;33098;52.400;16.880;2023-06-14T11:25:59;100949.21;;;23.85;52.62
24336;BME280;33098;52.400;16.880;2023-06-14T11:28:44;100948.84;;;23.88;52.45
24336;BME280;33098;52.400;16.880;2023-06-14T11:31:11;100948.24;;;23.90;52.08
24336;BME280;33098;52.400;16.880;2023-06-14T11:33:37;100945.34;;;24.02;51.90
24336;BME280;33098;52.400;16.880;2023-06-14T11:36:06;100939.29;;;24.29;51.52
24336;BME280;33098;52.400;16.880;2023-06-14T11:38:37;100938.95;;;24.65;51.32
24336;BME280;33098;52.400;16.880;2023-06-14T11:41:04;100938.31;;;25.05;50.84
24336;BME280;33098;52.400;16.880;2023-06-14T11:43:31;100938.23;;;25.33;50.03
24336;BME280;33098;52.400;16.880;2023-06-14T11:45:59;100939.77;;;25.41;49.58
24336;BME280;33098;52.400;16.880;2023-06-14T11:48:56;100936.16;;;25.39;49.18
24336;BME280;33098;52.400;16.880;2023-06-14T11:51:22;100933.95;;;25.34;48.98
24336;BME280;33098;52.400;16.880;2023-06-14T11:53:49;100928.90;;;25.21;48.74
24336;BME280;33098;52.400;16.880;2023-06-14T11:56:16;100923.58;;;25.05;48.55
24336;BME280;33098;52.400;16.880;2023-06-14T11:58:43;100923.81;;;24.87;48.51
24336;BME280;33098;52.400;16.880;2023-06-14T12:01:14;100921.91;;;24.67;48.43
24336;BME280;33098;52.400;16.880;2023-06-14T12:03:47;100918.25;;;24.47;48.28
24336;BME280;33098;52.400;16.880;2023-06-14T12:06:14;100914.33;;;24.27;48.46
24336;BME280;33098;52.400;16.880;2023-06-14T12:08:42;100917.06;;;24.09;48.48
24336;BME280;33098;52.400;16.880;2023-06-14T12:11:12;100915.94;;;23.93;48.69
24336;BME280;33098;52.400;16.880;2023-06-14T12:13:41;100913.11;;;23.77;48.72
24336;BME280;33098;52.400;16.880;2023-06-14T12:16:08;100913.93;;;23.61;48.62
24336;BME280;33098;52.400;16.880;2023-06-14T12:18:37;100912.40;;;23.51;48.81
24336;BME280;33098;52.400;16.880;2023-06-14T12:21:05;100915.08;;;23.47;48.94
24336;BME280;33098;52.400;16.880;2023-06-14T12:23:43;100909.23;;;23.45;48.80
24336;BME280;33098;52.400;16.880;2023-06-14T12:26:18;100906.32;;;23.46;48.78
24336;BME280;33098;52.400;16.880;2023-06-14T12:28:47;100902.72;;;23.54;48.73
24336;BME280;33098;52.400;16.880;2023-06-14T12:31:15;100902.37;;;23.52;48.58
24336;BME280;33098;52.400;16.880;2023-06-14T12:33:42;100899.27;;;23.42;48.30
24336;BME280;33098;52.400;16.880;2023-06-14T12:36:09;100905.57;;;23.32;48.49
24336;BME280;33098;52.400;16.880;2023-06-14T12:38:37;100909.20;;;23.23;48.44
24336;BME280;33098;52.400;16.880;2023-06-14T12:41:04;100909.27;;;23.14;48.69
24336;BME280;33098;52.400;16.880;2023-06-14T12:43:30;100910.63;;;23.08;48.68
24336;BME280;33098;52.400;16.880;2023-06-14T12:45:57;100907.70;;;22.99;48.48
24336;BME280;33098;52.400;16.880;2023-06-14T12:48:23;100908.66;;;22.95;48.67
24336;BME280;33098;52.400;16.880;2023-06-14T12:50:50;100900.09;;;22.97;48.67
24336;BME280;33098;52.400;16.880;2023-06-14T12:53:16;100908.13;;;23.04;48.76